Time,TemperatureF,DewpointF,PressureIn,WindDirection,WindDirectionDegrees,WindSpeedMPH,WindSpeedGustMPH,Humidity,HourlyPrecipIn,Conditions,Clouds,dailyrainin,SoftwareType,DateUTC
2013-07-15 00:02:00,75.0,65.0,29.89,North,0,0.0,0.0,72,0.00,,,0.02,,2013-07-15 05:02:00,
2013-07-15 00:11:00,75.0,65.0,29.90,North,0,0.0,0.0,72,0.00,,,0.02,,2013-07-15 05:11:00,
2013-07-15 00:21:00,75.0,65.0,29.90,North,0,0.0,0.0,72,0.00,,,0.02,,2013-07-15 05:21:00,
2013-07-15 00:32:00,75.0,66.0,29.89,North,0,0.0,0.0,73,0.00,,,0.02,,2013-07-15 05:32:00,
2013-07-15 00:43:00,75.0,66.0,29.89,North,0,0.0,0.0,73,0.00,,,0.02,,2013-07-15 05:43:00,
2013-07-15 00:53:00,75.0,66.0,29.89,North,0,0.0,0.0,73,0.00,,,0.02,,2013-07-15 05:53:00,
2013-07-15 01:02:00,75.0,66.0,29.89,North,0,0.0,0.0,73,0.00,,,0.02,,2013-07-15 06:02:00,
2013-07-15 01:22:00,74.0,66.0,29.88,North,0,0.0,0.0,77,0.00,,,0.02,,2013-07-15 06:22:00,
2013-07-15 01:32:00,74.0,66.0,29.88,North,0,0.0,0.0,77,0.00,,,0.02,,2013-07-15 06:32:00,
2013-07-15 01:42:00,74.0,66.0,29.88,North,0,0.0,0.0,77,0.00,,,0.02,,2013-07-15 06:42:00,
2013-07-15 01:53:00,74.0,66.0,29.88,North,0,0.0,0.0,77,0.00,,,0.02,,2013-07-15 06:53:00,
2013-07-15 02:01:00,74.0,66.0,29.88,North,0,0.0,0.0,77,0.00,,,0.02,,2013-07-15 07:01:00,
2013-07-15 02:20:00,74.0,67.0,29.88,North,0,0.0,0.0,80,0.00,,,0.02,,2013-07-15 07:20:00,
2013-07-15 02:22:00,74.0,67.0,29.89,North,0,0.0,0.0,79,0.00,,,0.02,,2013-07-15 07:22:00,
2013-07-15 02:33:00,74.0,67.0,29.88,North,0,0.0,0.0,80,0.00,,,0.02,,2013-07-15 07:33:00,
2013-07-15 02:44:00,74.0,67.0,29.88,North,0,0.0,0.0,80,0.00,,,0.02,,2013-07-15 07:44:00,
2013-07-15 02:53:00,74.0,67.0,29.88,North,0,0.0,0.0,80,0.00,,,0.02,,2013-07-15 07:53:00,
2013-07-15 03:01:00,74.0,67.0,29.88,North,0,0.0,0.0,80,0.00,,,0.02,,2013-07-15 08:01:00,
2013-07-15 03:11:00,74.0,67.0,29.88,North,0,0.0,0.0,80,0.00,,,0.02,,2013-07-15 08:11:00,
2013-07-15 04:11:00,74.0,68.0,29.88,North,0,0.0,0.0,82,0.00,,,0.02,,2013-07-15 09:11:00,
2013-07-15 04:22:00,74.0,68.0,29.88,North,0,0.0,0.0,83,0.00,,,0.02,,2013-07-15 09:22:00,
2013-07-15 04:32:00,74.0,68.0,29.88,North,0,0.0,0.0,83,0.00,,,0.02,,2013-07-15 09:32:00,
2013-07-15 04:43:00,74.0,68.0,29.88,North,0,0.0,0.0,83,0.00,,,0.02,,2013-07-15 09:43:00,
2013-07-15 04:52:00,74.0,68.0,29.88,North,0,0.0,0.0,83,0.00,,,0.02,,2013-07-15 09:52:00,
2013-07-15 05:02:00,74.0,68.0,29.88,North,0,0.0,0.0,83,0.00,,,0.02,,2013-07-15 10:02:00,
2013-07-15 05:11:00,73.0,68.0,29.90,North,0,0.0,0.0,84,0.00,,,0.02,,2013-07-15 10:11:00,
2013-07-15 05:21:00,73.0,68.0,29.90,North,0,0.0,0.0,84,0.00,,,0.02,,2013-07-15 10:21:00,
2013-07-15 05:32:00,73.0,68.0,29.90,North,0,0.0,0.0,84,0.00,,,0.02,,2013-07-15 10:32:00,
2013-07-15 05:43:00,72.0,67.0,29.90,North,0,0.0,0.0,85,0.00,,,0.02,,2013-07-15 10:43:00,
2013-07-15 05:53:00,72.0,67.0,29.90,North,0,0.0,0.0,85,0.00,,,0.02,,2013-07-15 10:53:00,
2013-07-15 06:01:00,72.0,67.0,29.90,North,0,0.0,0.0,85,0.00,,,0.02,,2013-07-15 11:01:00,
2013-07-15 06:11:00,71.0,67.0,29.88,North,0,0.0,0.0,87,0.00,,,0.02,,2013-07-15 11:11:00,
2013-07-15 06:22:00,71.0,67.0,29.88,North,0,0.0,0.0,87,0.00,,,0.02,,2013-07-15 11:22:00,
2013-07-15 06:31:00,72.0,68.0,29.88,North,0,0.0,0.0,87,0.00,,,0.02,,2013-07-15 11:31:00,
2013-07-15 06:32:00,71.0,67.0,29.88,North,0,0.0,0.0,87,0.00,,,0.02,,2013-07-15 11:32:00,
2013-07-15 06:42:00,72.0,68.0,29.88,North,0,0.0,0.0,87,0.00,,,0.02,,2013-07-15 11:42:00,
2013-07-15 06:52:00,72.0,68.0,29.88,North,0,0.0,0.0,87,0.00,,,0.02,,2013-07-15 11:52:00,
2013-07-15 07:01:00,72.0,68.0,29.88,North,0,0.0,0.0,87,0.00,,,0.02,,2013-07-15 12:01:00,
2013-07-15 07:11:00,72.0,68.0,29.88,North,0,0.0,0.0,87,0.00,,,0.02,,2013-07-15 12:11:00,
2013-07-15 07:22:00,72.0,68.0,29.88,North,0,0.0,0.0,87,0.00,,,0.02,,2013-07-15 12:22:00,
2013-07-15 07:42:00,72.0,68.0,29.90,North,0,0.0,0.0,88,0.00,,,0.02,,2013-07-15 12:42:00,
2013-07-15 07:53:00,72.0,68.0,29.90,North,0,0.0,0.0,88,0.00,,,0.02,,2013-07-15 12:53:00,
2013-07-15 08:01:00,72.0,68.0,29.90,North,0,0.0,0.0,88,0.00,,,0.02,,2013-07-15 13:01:00,
2013-07-15 08:11:00,72.0,68.0,29.90,North,0,0.0,0.0,88,0.00,,,0.02,,2013-07-15 13:11:00,
2013-07-15 08:22:00,72.0,68.0,29.90,North,0,0.0,0.0,88,0.00,,,0.02,,2013-07-15 13:22:00,
2013-07-15 08:33:00,72.0,68.0,29.90,North,0,0.0,0.0,88,0.00,,,0.02,,2013-07-15 13:33:00,
2013-07-15 08:43:00,72.0,68.0,29.91,North,0,0.0,0.0,88,0.00,,,0.02,,2013-07-15 13:43:00,
2013-07-15 08:53:00,72.0,68.0,29.91,North,0,0.0,0.0,88,0.00,,,0.02,,2013-07-15 13:53:00,
2013-07-15 09:02:00,72.0,68.0,29.91,North,0,0.0,0.0,88,0.00,,,0.02,,2013-07-15 14:02:00,
2013-07-15 09:11:00,72.0,68.0,29.91,North,0,0.0,0.0,88,0.00,,,0.02,,2013-07-15 14:11:00,
2013-07-15 09:22:00,72.0,68.0,29.91,North,0,0.0,0.0,88,0.00,,,0.02,,2013-07-15 14:22:00,
2013-07-15 11:24:00,71.0,67.0,29.95,North,0,0.0,0.0,88,0.02,,,0.04,,2013-07-15 16:24:00,
2013-07-15 11:33:00,70.0,66.0,29.95,North,0,0.0,0.0,88,0.02,,,0.04,,2013-07-15 16:33:00,
2013-07-15 11:48:00,70.0,66.0,29.96,North,0,0.0,0.0,88,0.16,,,0.19,,2013-07-15 16:48:00,
2013-07-15 12:03:00,70.0,66.0,29.96,North,0,0.0,0.0,88,0.29,,,0.31,,2013-07-15 17:03:00,
2013-07-15 12:13:00,70.0,66.0,29.96,North,0,0.0,0.0,88,0.37,,,0.41,,2013-07-15 17:13:00,
2013-07-15 12:23:00,70.0,66.0,29.96,North,0,0.0,0.0,88,0.37,,,0.41,,2013-07-15 17:23:00,
2013-07-15 12:36:00,70.0,66.0,29.96,North,0,0.0,0.0,88,0.37,,,0.41,,2013-07-15 17:36:00,
2013-07-15 12:47:00,71.0,67.0,29.96,North,0,0.0,0.0,88,0.26,,,0.45,,2013-07-15 17:47:00,
2013-07-15 12:54:00,71.0,67.0,29.96,North,0,0.0,0.0,88,0.26,,,0.45,,2013-07-15 17:54:00,
2013-07-15 13:04:00,72.0,68.0,29.96,North,0,0.0,0.0,88,0.16,,,0.49,,2013-07-15 18:04:00,
2013-07-15 13:15:00,72.0,68.0,29.96,North,0,0.0,0.0,88,0.16,,,0.49,,2013-07-15 18:15:00,
2013-07-15 13:25:00,72.0,68.0,29.96,North,0,0.0,0.0,88,0.16,,,0.49,,2013-07-15 18:25:00,
2013-07-15 13:45:00,72.0,68.0,29.96,North,0,0.0,0.0,88,0.04,,,0.49,,2013-07-15 18:45:00,
2013-07-15 13:59:00,72.0,68.0,29.96,North,0,0.0,0.0,88,0.04,,,0.49,,2013-07-15 18:59:00,
2013-07-15 14:05:00,73.0,69.0,29.95,North,0,0.0,0.0,88,0.06,,,0.51,,2013-07-15 19:05:00,
2013-07-15 14:11:00,73.0,69.0,29.95,North,0,0.0,0.0,88,0.06,,,0.51,,2013-07-15 19:11:00,
2013-07-15 14:24:00,74.0,70.0,29.96,North,0,0.0,0.0,88,0.06,,,0.51,,2013-07-15 19:24:00,
2013-07-15 14:35:00,74.0,70.0,29.96,North,0,0.0,0.0,88,0.06,,,0.51,,2013-07-15 19:35:00,
2013-07-15 14:45:00,73.0,69.0,29.96,North,0,0.0,0.0,88,0.06,,,0.51,,2013-07-15 19:45:00,
2013-07-15 14:56:00,73.0,69.0,29.96,North,0,0.0,0.0,88,0.06,,,0.51,,2013-07-15 19:56:00,
2013-07-15 15:04:00,73.0,69.0,29.96,North,0,0.0,0.0,88,0.06,,,0.51,,2013-07-15 20:04:00,
2013-07-15 15:15:00,73.0,69.0,29.96,North,0,0.0,0.0,88,0.06,,,0.51,,2013-07-15 20:15:00,
2013-07-15 16:12:00,71.0,68.0,29.95,North,0,0.0,0.0,89,0.41,,,0.90,,2013-07-15 21:12:00,
2013-07-15 16:23:00,71.0,68.0,29.95,North,0,0.0,0.0,89,0.41,,,0.90,,2013-07-15 21:23:00,
2013-07-15 16:37:00,71.0,68.0,29.95,North,0,0.0,0.0,89,0.41,,,0.90,,2013-07-15 21:37:00,
2013-07-15 16:46:00,71.0,68.0,29.95,North,0,0.0,0.0,89,0.41,,,0.90,,2013-07-15 21:46:00,
2013-07-15 16:54:00,71.0,68.0,29.95,North,0,0.0,0.0,89,0.41,,,0.90,,2013-07-15 21:54:00,
2013-07-15 17:02:00,72.0,69.0,29.95,North,0,0.0,0.0,89,0.24,,,0.90,,2013-07-15 22:02:00,
2013-07-15 17:16:00,72.0,69.0,29.95,North,0,0.0,0.0,89,0.24,,,0.90,,2013-07-15 22:16:00,
2013-07-15 17:22:00,73.0,70.0,29.95,North,0,0.0,0.0,89,0.02,,,0.92,,2013-07-15 22:22:00,
2013-07-15 17:34:00,73.0,70.0,29.95,North,0,0.0,0.0,89,0.02,,,0.92,,2013-07-15 22:34:00,
2013-07-15 17:43:00,73.0,70.0,29.95,North,0,0.0,0.0,89,0.02,,,0.92,,2013-07-15 22:43:00,
2013-07-15 17:54:00,74.0,71.0,29.95,North,0,0.0,0.0,89,0.02,,,0.92,,2013-07-15 22:54:00,
2013-07-15 18:04:00,74.0,71.0,29.95,North,0,0.0,0.0,89,0.02,,,0.92,,2013-07-15 23:04:00,
2013-07-15 18:13:00,74.0,71.0,29.95,North,0,0.0,0.0,89,0.02,,,0.92,,2013-07-15 23:13:00,
2013-07-15 18:35:00,74.0,71.0,29.95,North,0,0.0,0.0,89,0.02,,,0.92,,2013-07-15 23:35:00,
2013-07-15 18:46:00,74.0,71.0,29.95,North,0,0.0,0.0,89,0.02,,,0.92,,2013-07-15 23:46:00,
2013-07-15 18:53:00,74.0,71.0,29.95,North,0,0.0,0.0,89,0.02,,,0.92,,2013-07-15 23:53:00,
2013-07-15 19:34:00,71.0,68.0,29.95,North,0,0.0,0.0,89,0.06,,,0.98,,2013-07-16 00:34:00,
2013-07-15 19:50:00,71.0,68.0,29.95,North,0,0.0,0.0,89,0.06,,,0.98,,2013-07-16 00:50:00,
2013-07-15 19:52:00,70.0,67.0,29.93,North,0,0.0,0.0,89,0.02,,,0.98,,2013-07-16 00:52:00,
2013-07-15 20:06:00,71.0,68.0,29.95,North,0,0.0,0.0,89,0.06,,,0.98,,2013-07-16 01:06:00,
2013-07-15 20:14:00,70.0,67.0,29.93,North,0,0.0,0.0,89,0.02,,,0.98,,2013-07-16 01:14:00,
2013-07-15 20:25:00,70.0,67.0,29.93,North,0,0.0,0.0,89,0.02,,,0.98,,2013-07-16 01:25:00,
2013-07-15 20:35:00,70.0,67.0,29.93,North,0,0.0,0.0,89,0.02,,,0.98,,2013-07-16 01:35:00,
2013-07-15 20:46:00,70.0,67.0,29.93,North,0,0.0,0.0,89,0.02,,,0.98,,2013-07-16 01:46:00,
2013-07-15 21:42:00,71.0,68.0,29.98,North,0,0.0,0.0,89,0.00,,,0.98,,2013-07-16 02:42:00,
2013-07-15 21:54:00,71.0,68.0,29.98,North,0,0.0,0.0,89,0.00,,,0.98,,2013-07-16 02:54:00,
2013-07-15 22:06:00,71.0,68.0,29.98,North,0,0.0,0.0,89,0.00,,,0.98,,2013-07-16 03:06:00,
2013-07-15 22:14:00,71.0,68.0,29.98,North,0,0.0,0.0,89,0.00,,,0.98,,2013-07-16 03:14:00,
2013-07-15 22:25:00,71.0,68.0,29.98,North,0,0.0,0.0,89,0.00,,,0.98,,2013-07-16 03:25:00,
2013-07-15 22:36:00,71.0,68.0,29.98,North,0,0.0,0.0,89,0.00,,,0.98,,2013-07-16 03:36:00,
2013-07-15 22:58:00,71.0,68.0,29.99,North,0,0.0,0.0,89,0.00,,,0.98,,2013-07-16 03:58:00,
2013-07-15 23:01:00,71.0,68.0,29.99,North,0,0.0,0.0,89,0.00,,,0.98,,2013-07-16 04:01:00,
2013-07-15 23:12:00,71.0,68.0,29.99,North,0,0.0,0.0,89,0.00,,,0.98,,2013-07-16 04:12:00,
2013-07-15 23:22:00,71.0,68.0,29.99,North,0,0.0,0.0,89,0.00,,,0.98,,2013-07-16 04:22:00,
2013-07-15 23:32:00,71.0,68.0,30.00,North,0,0.0,0.0,89,0.00,,,0.98,,2013-07-16 04:32:00,
2013-07-15 23:43:00,71.0,68.0,30.00,North,0,0.0,0.0,89,0.00,,,0.98,,2013-07-16 04:43:00,
2013-07-15 23:53:00,71.0,68.0,30.00,North,0,0.0,0.0,89,0.00,,,0.98,,2013-07-16 04:53:00,